Time;durP1;ratioP1;P1;durP2;ratioP2;P2;SDS_P1;SDS_P2;PMS_P1;PMS_P2;Temp;Humidity;BMP_temperature;BMP_pressure;BME280_temperature;BME280_humidity;BME280_pressure;Samples;Min_cycle;Max_cycle;Signal;HPM_P1;HPM_P2
2022/08/27 00:00:23;;;;;;;10.50;6.40;;;;;;;19.35;51.72;97450.48;105718;1282;22686;-88
2022/08/27 00:03:04;;;;;;;14.50;6.30;;;;;;;19.29;51.93;97451.96;105756;1282;25534;-89
2022/08/27 00:05:32;;;;;;;10.90;6.20;;;;;;;19.23;52.08;97450.78;105650;1282;22706;-88
2022/08/27 00:08:03;;;;;;;10.80;6.80;;;;;;;19.15;52.08;97452.06;105578;1284;22549;-88
2022/08/27 00:10:32;;;;;;;11.20;6.30;;;;;;;19.08;52.28;97451.32;105525;1282;22642;-89
2022/08/27 00:13:00;;;;;;;8.00;5.80;;;;;;;18.98;52.39;97447.73;105666;1282;25355;-87
2022/08/27 00:15:30;;;;;;;10.10;6.40;;;;;;;18.89;52.47;97446.80;105937;1282;22672;-88
2022/08/27 00:17:59;;;;;;;9.60;6.70;;;;;;;18.77;52.78;97443.77;105718;1282;24212;-86
2022/08/27 00:20:27;;;;;;;12.90;6.90;;;;;;;18.71;52.80;97452.16;105500;1282;25995;-87
2022/08/27 00:22:55;;;;;;;13.60;6.90;;;;;;;18.59;53.13;97449.60;105506;1282;25333;-87
2022/08/27 00:25:24;;;;;;;11.20;7.10;;;;;;;18.49;53.25;97447.94;105713;1282;24248;-87
2022/08/27 00:27:52;;;;;;;14.40;7.70;;;;;;;18.40;53.47;97447.90;105675;1282;22564;-87
2022/08/27 00:30:22;;;;;;;15.30;6.90;;;;;;;18.27;53.69;97450.64;105750;1282;23917;-89
2022/08/27 00:32:50;;;;;;;13.70;7.10;;;;;;;18.16;54.06;97449.55;105628;1282;22564;-86
2022/08/27 00:35:22;;;;;;;12.00;7.50;;;;;;;18.06;54.07;97455.83;105672;1282;25324;-86
2022/08/27 00:37:50;;;;;;;12.10;7.30;;;;;;;18.00;54.56;97459.11;105419;1282;22540;-86
2022/08/27 00:40:20;;;;;;;9.70;7.10;;;;;;;17.95;54.95;97460.35;105685;1282;24085;-87
2022/08/27 00:42:49;;;;;;;13.90;7.30;;;;;;;17.91;54.94;97460.73;105592;1282;22580;-88
2022/08/27 00:45:20;;;;;;;10.50;7.30;;;;;;;17.83;55.19;97461.24;105634;1282;22541;-87
2022/08/27 00:47:53;;;;;;;11.10;7.20;;;;;;;17.74;55.51;97458.09;105442;1282;22629;-88
2022/08/27 00:50:32;;;;;;;11.40;7.20;;;;;;;17.64;55.51;97458.88;105672;1282;25248;-86
2022/08/27 00:53:18;;;;;;;12.50;7.20;;;;;;;17.53;55.84;97455.37;105679;1282;24284;-86
2022/08/27 00:56:01;;;;;;;15.00;7.30;;;;;;;17.46;56.04;97455.12;105808;1282;23052;-87
2022/08/27 00:58:36;;;;;;;14.20;7.30;;;;;;;17.46;56.30;97449.83;105766;1282;25586;-88
2022/08/27 01:01:06;;;;;;;12.00;6.90;;;;;;;17.51;56.38;97449.64;105921;1282;24352;-86
2022/08/27 01:03:35;;;;;;;12.80;7.30;;;;;;;17.59;56.39;97446.15;105824;1282;22809;-87
2022/08/27 01:06:08;;;;;;;12.70;7.10;;;;;;;17.68;56.56;97443.55;105726;1283;22537;-86
2022/08/27 01:08:41;;;;;;;10.70;7.00;;;;;;;17.77;56.58;97438.92;105500;1282;24158;-87
2022/08/27 01:11:10;;;;;;;11.80;7.90;;;;;;;17.86;56.51;97440.38;105835;1282;25649;-89
2022/08/27 01:13:42;;;;;;;14.00;7.20;;;;;;;17.98;56.52;97441.48;105984;1282;25311;-87
2022/08/27 01:16:35;;;;;;;12.60;6.80;;;;;;;18.08;56.34;97440.11;105884;1283;22810;-87
2022/08/27 01:19:08;;;;;;;12.20;6.50;;;;;;;18.15;56.22;97443.14;106035;1282;25361;-86
2022/08/27 01:22:04;;;;;;;14.50;7.50;;;;;;;18.24;56.16;97442.15;108572;1282;22491;-87
2022/08/27 01:24:32;;;;;;;10.90;7.20;;;;;;;18.30;56.24;97443.05;107073;1282;22564;-86
2022/08/27 01:27:03;;;;;;;16.70;8.20;;;;;;;18.31;56.24;97445.17;105919;1281;25568;-87
2022/08/27 01:29:36;;;;;;;;;;;;;;;18.29;56.32;97443.34;106160;1282;24172;-87
2022/08/27 01:32:12;;;;;;;14.10;7.50;;;;;;;18.25;56.11;97443.11;105842;1282;25815;-87
2022/08/27 01:34:40;;;;;;;11.70;7.40;;;;;;;18.21;56.27;97446.98;105680;1283;24293;-87
2022/08/27 01:37:10;;;;;;;10.70;7.60;;;;;;;18.14;56.42;97444.46;105896;1282;24243;-88
2022/08/27 01:39:40;;;;;;;10.30;7.80;;;;;;;18.10;56.64;97447.10;105946;1282;24266;-87
2022/08/27 01:42:33;;;;;;;12.80;7.20;;;;;;;18.05;56.78;97449.81;106080;1282;22659;-86
2022/08/27 01:45:07;;;;;;;11.30;7.20;;;;;;;18.00;56.84;97450.41;106027;1282;23321;-89
2022/08/27 01:47:36;;;;;;;;;;;;;;;17.95;56.99;97450.21;106184;1282;24394;-87
2022/08/27 01:50:17;;;;;;;9.40;7.00;;;;;;;17.85;56.96;97447.92;106094;1282;22540;-87
2022/08/27 01:52:45;;;;;;;8.80;7.30;;;;;;;17.75;56.98;97449.09;106192;1282;22594;-89
2022/08/27 01:55:17;;;;;;;9.20;7.00;;;;;;;17.63;57.34;97448.89;105990;1283;25427;-87
2022/08/27 01:57:45;;;;;;;11.40;7.30;;;;;;;17.50;57.59;97446.42;107701;1282;22571;-86
2022/08/27 02:00:21;;;;;;;9.90;7.10;;;;;;;17.39;57.65;97443.61;108485;1282;22548;-87
2022/08/27 02:02:50;;;;;;;11.40;7.20;;;;;;;17.35;57.89;97444.77;109107;1281;22651;-87
2022/08/27 02:05:19;;;;;;;10.80;6.80;;;;;;;17.36;58.27;97442.90;109029;1282;22678;-87
2022/08/27 02:07:48;;;;;;;13.20;6.90;;;;;;;17.41;58.62;97443.73;109066;1282;22538;-85
2022/08/27 02:10:20;;;;;;;22.90;7.90;;;;;;;17.48;58.93;97447.79;109018;1282;22567;-85
2022/08/27 02:12:48;;;;;;;10.80;8.00;;;;;;;17.52;58.94;97448.09;109031;1282;22751;-84
2022/08/27 02:15:16;;;;;;;15.00;8.10;;;;;;;17.53;58.85;97444.98;109068;1282;22593;-84
2022/08/27 02:17:45;;;;;;;11.80;7.80;;;;;;;17.54;59.08;97444.17;109017;1282;22558;-86
2022/08/27 02:20:14;;;;;;;10.40;7.60;;;;;;;17.55;58.97;97437.96;107780;1281;25368;-87
2022/08/27 02:22:43;;;;;;;12.60;7.50;;;;;;;17.54;59.04;97435.45;108016;1282;23690;-88
2022/08/27 02:25:15;;;;;;;14.80;6.50;;;;;;;17.54;59.01;97429.62;109125;1282;22546;-88
2022/08/27 02:27:43;;;;;;;10.50;7.30;;;;;;;17.55;58.99;97430.65;109129;1282;22559;-86
2022/08/27 02:30:13;;;;;;;8.20;6.80;;;;;;;17.57;59.09;97432.17;108822;1282;22554;-86
2022/08/27 02:32:42;;;;;;;13.00;7.90;;;;;;;17.57;59.13;97431.02;108822;1282;22522;-86
2022/08/27 02:35:10;;;;;;;16.00;6.90;;;;;;;17.56;59.10;97426.63;109187;1282;22819;-86
2022/08/27 02:37:38;;;;;;;9.60;8.40;;;;;;;17.54;59.15;97427.14;108748;1282;22689;-84
2022/08/27 02:40:07;;;;;;;12.50;7.30;;;;;;;17.52;59.17;97426.55;109078;1282;22555;-85
2022/08/27 02:42:36;;;;;;;13.80;7.50;;;;;;;17.49;59.25;97425.86;109027;1282;22770;-87
2022/08/27 02:45:06;;;;;;;11.10;7.50;;;;;;;17.46;59.30;97425.32;108579;1282;22720;-87
2022/08/27 02:47:35;;;;;;;13.20;8.70;;;;;;;17.43;59.50;97423.46;109041;1282;23030;-86
2022/08/27 02:50:03;;;;;;;11.70;7.70;;;;;;;17.41;59.50;97419.77;108967;1282;22579;-87
2022/08/27 02:52:31;;;;;;;13.80;7.10;;;;;;;17.43;59.76;97420.81;106529;1282;22552;-87
2022/08/27 02:54:59;;;;;;;12.50;7.50;;;;;;;17.45;60.06;97420.79;107658;1282;22489;-88
2022/08/27 02:57:27;;;;;;;12.10;7.00;;;;;;;17.45;60.13;97421.73;105957;1282;24783;-88
2022/08/27 02:59:55;;;;;;;15.90;7.90;;;;;;;17.44;60.31;97422.10;105764;1282;24293;-88
2022/08/27 03:02:24;;;;;;;15.40;8.20;;;;;;;17.41;60.11;97421.95;105849;1282;25318;-89
2022/08/27 03:04:54;;;;;;;10.10;6.90;;;;;;;17.38;60.30;97422.56;105837;1282;24313;-89
2022/08/27 03:07:23;;;;;;;9.00;7.30;;;;;;;17.34;60.42;97419.52;105718;1282;24240;-89
2022/08/27 03:09:51;;;;;;;13.70;7.70;;;;;;;17.29;60.54;97421.13;105830;1283;23551;-89
2022/08/27 03:12:19;;;;;;;9.80;7.50;;;;;;;17.28;60.66;97423.27;105851;1282;24448;-88
2022/08/27 03:14:51;;;;;;;15.30;7.70;;;;;;;17.28;60.54;97417.91;105726;1282;22583;-88
2022/08/27 03:20:09;;;;;;;11.40;7.30;;;;;;;17.33;60.60;97416.23;105939;1282;22487;-89
2022/08/27 03:22:39;;;;;;;13.50;8.00;;;;;;;17.39;60.79;97415.29;105850;1282;22575;-89
2022/08/27 03:25:08;;;;;;;12.40;8.60;;;;;;;17.47;60.55;97418.48;105717;1283;22558;-89
2022/08/27 03:27:37;;;;;;;16.90;8.70;;;;;;;17.48;60.83;97419.89;105821;1283;22564;-89
2022/08/27 03:30:09;;;;;;;12.70;8.20;;;;;;;17.46;60.58;97419.55;105803;1282;23642;-89
2022/08/27 03:32:38;;;;;;;10.10;7.90;;;;;;;17.45;60.70;97420.08;105856;1283;22701;-87
2022/08/27 03:35:07;;;;;;;14.20;8.20;;;;;;;17.42;60.71;97417.63;105702;1282;22549;-90
2022/08/27 03:37:35;;;;;;;13.30;7.90;;;;;;;17.40;60.64;97412.33;105532;1283;22596;-87
2022/08/27 03:40:05;;;;;;;8.60;7.70;;;;;;;17.36;60.80;97410.46;105575;1282;23998;-89
2022/08/27 03:42:34;;;;;;;9.00;7.90;;;;;;;17.32;60.78;97410.77;105693;1282;24371;-91
2022/08/27 03:45:03;;;;;;;11.70;7.40;;;;;;;17.30;60.77;97409.32;105692;1282;25460;-90
2022/08/27 03:47:32;;;;;;;9.20;7.70;;;;;;;17.30;60.75;97408.23;105648;1282;22654;-89
2022/08/27 03:50:00;;;;;;;11.70;7.70;;;;;;;17.34;61.04;97404.98;105387;1283;25476;-89
2022/08/27 03:52:28;;;;;;;12.80;7.50;;;;;;;17.40;61.12;97405.44;105651;1281;22754;-89
2022/08/27 03:54:57;;;;;;;11.90;8.10;;;;;;;17.43;61.25;97407.65;105619;1282;25562;-87
2022/08/27 03:57:25;;;;;;;13.50;7.80;;;;;;;17.40;61.13;97407.46;105390;1284;25409;-88
2022/08/27 03:59:54;;;;;;;15.60;7.80;;;;;;;17.36;61.29;97412.56;105590;1282;25399;-88
2022/08/27 04:02:22;;;;;;;9.80;7.80;;;;;;;17.31;61.31;97413.55;105457;1284;22553;-88
2022/08/27 04:04:50;;;;;;;12.50;7.70;;;;;;;17.28;61.61;97413.87;105463;1283;22704;-88
2022/08/27 04:07:18;;;;;;;15.00;8.00;;;;;;;17.26;61.68;97411.56;105556;1282;22646;-88
2022/08/27 04:09:46;;;;;;;12.40;8.90;;;;;;;17.21;61.64;97415.65;105378;1283;22573;-88
2022/08/27 04:12:14;;;;;;;10.90;8.70;;;;;;;17.14;61.82;97418.66;105574;1282;22778;-88
2022/08/27 04:14:42;;;;;;;12.30;7.80;;;;;;;17.08;62.15;97422.10;105585;1282;22540;-88
2022/08/27 04:17:10;;;;;;;14.60;7.80;;;;;;;17.03;62.32;97421.77;105652;1282;25431;-88
2022/08/27 04:19:38;;;;;;;12.90;7.90;;;;;;;17.00;62.32;97421.48;105619;1283;23938;-89
2022/08/27 04:22:06;;;;;;;11.80;7.70;;;;;;;16.99;62.42;97418.09;105554;1283;25400;-88
2022/08/27 04:24:36;;;;;;;14.50;7.90;;;;;;;16.95;62.88;97420.86;105453;1284;24239;-89
2022/08/27 04:27:05;;;;;;;14.10;8.60;;;;;;;16.87;63.23;97417.02;105307;1282;22561;-88
2022/08/27 04:29:33;;;;;;;12.60;8.20;;;;;;;16.79;63.46;97416.22;105525;1283;22562;-89
2022/08/27 04:32:03;;;;;;;15.30;9.00;;;;;;;16.72;63.56;97417.57;105637;1282;25415;-88
2022/08/27 04:34:32;;;;;;;13.90;8.60;;;;;;;16.69;63.74;97419.34;105655;1282;24442;-88
2022/08/27 04:37:00;;;;;;;13.40;7.90;;;;;;;16.68;63.95;97419.41;105621;1283;22868;-88
2022/08/27 04:39:28;;;;;;;14.30;8.40;;;;;;;16.69;63.84;97420.11;105616;1285;24235;-88
2022/08/27 04:42:00;;;;;;;15.80;8.30;;;;;;;16.68;63.86;97423.98;105626;1283;22542;-89
2022/08/27 04:44:31;;;;;;;12.90;8.30;;;;;;;16.68;64.05;97428.90;105995;1283;22886;-87
2022/08/27 04:47:03;;;;;;;14.40;8.30;;;;;;;16.70;64.10;97423.88;108345;1282;22728;-86
2022/08/27 04:49:32;;;;;;;19.70;8.70;;;;;;;16.74;64.21;97425.92;105589;1282;25244;-88
2022/08/27 04:52:01;;;;;;;12.90;8.60;;;;;;;16.77;64.61;97420.73;105706;1284;23984;-88
2022/08/27 04:54:29;;;;;;;10.30;8.50;;;;;;;16.82;64.70;97422.11;105679;1284;22650;-88
2022/08/27 04:57:02;;;;;;;12.90;8.60;;;;;;;16.84;65.07;97418.20;105586;1284;25379;-88
2022/08/27 04:59:31;;;;;;;13.10;8.60;;;;;;;16.83;65.33;97416.98;105607;1283;25540;-88
2022/08/27 05:02:01;;;;;;;16.80;10.00;;;;;;;16.82;65.40;97418.86;105766;1283;22893;-89
2022/08/27 05:04:34;;;;;;;12.40;8.80;;;;;;;16.87;65.44;97415.02;105621;1282;25301;-88
2022/08/27 05:07:03;;;;;;;12.10;7.90;;;;;;;16.94;65.37;97411.30;105928;1283;24361;-88
2022/08/27 05:09:33;;;;;;;12.70;8.60;;;;;;;17.04;65.53;97413.54;105929;1283;25560;-89
2022/08/27 05:12:01;;;;;;;16.00;8.20;;;;;;;17.16;65.45;97418.04;105621;1283;22734;-88
2022/08/27 05:14:31;;;;;;;19.60;8.10;;;;;;;17.28;65.58;97419.39;105695;1284;24379;-90
2022/08/27 05:16:59;;;;;;;11.60;8.80;;;;;;;17.40;65.62;97426.36;105689;1284;22560;-88
2022/08/27 05:19:27;;;;;;;14.80;8.10;;;;;;;17.53;65.66;97425.86;105691;1283;25515;-89
2022/08/27 05:21:55;;;;;;;15.30;8.40;;;;;;;17.67;65.70;97424.37;105664;1282;25639;-88
2022/08/27 05:24:23;;;;;;;12.70;8.40;;;;;;;17.78;65.70;97422.20;105439;1284;24127;-87
2022/08/27 05:26:51;;;;;;;10.70;8.70;;;;;;;17.89;65.75;97423.86;105585;1282;24402;-90
2022/08/27 05:29:21;;;;;;;13.90;8.80;;;;;;;18.01;65.65;97424.73;105627;1284;22569;-88
2022/08/27 05:31:49;;;;;;;9.90;8.20;;;;;;;18.12;65.57;97427.20;105673;1284;22544;-89
2022/08/27 05:34:17;;;;;;;16.10;8.60;;;;;;;18.24;65.52;97427.27;105637;1283;22566;-89
2022/08/27 05:36:53;;;;;;;10.30;7.70;;;;;;;18.37;65.46;97433.36;105653;1284;22586;-89
2022/08/27 05:39:22;;;;;;;11.20;8.40;;;;;;;18.48;65.36;97434.96;105373;1284;23081;-86
2022/08/27 05:41:51;;;;;;;16.60;8.10;;;;;;;18.59;65.35;97434.47;105567;1283;22567;-87
2022/08/27 05:44:19;;;;;;;14.40;8.20;;;;;;;18.74;65.37;97436.39;105684;1282;25521;-86
2022/08/27 05:47:07;;;;;;;15.00;8.80;;;;;;;18.92;65.49;97439.44;105543;1283;25303;-86
2022/08/27 05:49:36;;;;;;;9.60;8.10;;;;;;;19.06;65.60;97442.15;105572;1284;22785;-85
2022/08/27 05:52:09;;;;;;;18.40;9.30;;;;;;;19.17;65.54;97450.14;105918;1284;22913;-85
2022/08/27 05:54:38;;;;;;;9.90;7.90;;;;;;;19.26;65.36;97446.07;108240;1282;22550;-86
2022/08/27 05:57:06;;;;;;;12.20;8.70;;;;;;;19.35;65.25;97446.91;106091;1283;25364;-86
2022/08/27 06:02:22;;;;;;;12.40;8.80;;;;;;;19.56;65.03;97448.61;105573;1284;24224;-87
2022/08/27 06:04:50;;;;;;;12.80;8.10;;;;;;;19.64;64.90;97452.25;105895;1282;22547;-87
2022/08/27 06:07:18;;;;;;;13.20;8.20;;;;;;;19.72;64.72;97456.77;105847;1284;22696;-86
2022/08/27 06:09:46;;;;;;;16.00;8.90;;;;;;;19.79;64.50;97454.05;105397;1284;24068;-86
2022/08/27 06:12:14;;;;;;;14.50;8.90;;;;;;;19.83;64.14;97457.99;105319;1284;22557;-87
2022/08/27 06:14:42;;;;;;;15.40;8.90;;;;;;;19.87;64.05;97459.92;105633;1283;25360;-87
2022/08/27 06:17:10;;;;;;;14.50;9.10;;;;;;;19.95;63.93;97463.70;105595;1284;22600;-87
2022/08/27 06:19:41;;;;;;;14.90;9.80;;;;;;;20.02;63.73;97459.42;105597;1282;25245;-87
2022/08/27 06:22:09;;;;;;;13.90;9.30;;;;;;;20.10;63.72;97462.56;105612;1284;22557;-87
2022/08/27 06:24:40;;;;;;;13.80;8.80;;;;;;;20.21;63.71;97464.57;105581;1284;22552;-86
2022/08/27 06:27:12;;;;;;;14.80;9.20;;;;;;;20.30;63.53;97464.13;105541;1284;24283;-87
2022/08/27 06:29:41;;;;;;;17.90;9.20;;;;;;;20.37;63.46;97464.21;105569;1282;23967;-87
2022/08/27 06:32:11;;;;;;;12.70;9.20;;;;;;;20.47;63.19;97464.48;105580;1284;22824;-87
2022/08/27 06:34:39;;;;;;;12.30;9.10;;;;;;;20.54;63.25;97467.08;105558;1284;24312;-86
2022/08/27 06:37:07;;;;;;;12.90;8.90;;;;;;;20.63;63.10;97476.09;105536;1282;22539;-86
2022/08/27 06:39:38;;;;;;;13.30;8.50;;;;;;;20.70;62.70;97474.67;105523;1282;23062;-86
2022/08/27 06:42:10;;;;;;;11.20;8.70;;;;;;;20.78;62.73;97478.98;105548;1282;24364;-87
2022/08/27 06:44:40;;;;;;;14.50;9.50;;;;;;;20.86;62.74;97482.59;105584;1283;22784;-86
2022/08/27 06:47:09;;;;;;;11.10;8.80;;;;;;;20.98;62.47;97484.89;105623;1282;22576;-88
2022/08/27 06:49:39;;;;;;;13.50;9.50;;;;;;;21.06;61.94;97489.43;105587;1284;24282;-85
2022/08/27 06:52:07;;;;;;;13.80;8.90;;;;;;;21.15;61.98;97487.38;105603;1284;22555;-86
2022/08/27 06:54:36;;;;;;;11.90;10.20;;;;;;;21.27;62.08;97484.27;105407;1284;24535;-86
2022/08/27 06:57:04;;;;;;;15.40;10.50;;;;;;;21.42;62.05;97485.99;105537;1283;22703;-86
2022/08/27 06:59:32;;;;;;;14.80;11.10;;;;;;;21.54;61.63;97482.63;105564;1283;24294;-86
2022/08/27 07:02:00;;;;;;;19.10;11.60;;;;;;;21.61;61.53;97484.23;105572;1281;22700;-87
2022/08/27 07:04:28;;;;;;;16.00;10.10;;;;;;;21.64;61.59;97476.13;105571;1282;22682;-87
2022/08/27 07:07:01;;;;;;;14.50;10.50;;;;;;;21.73;61.40;97474.30;105518;1282;25392;-86
2022/08/27 07:09:33;;;;;;;14.00;10.60;;;;;;;21.83;61.23;97474.50;105651;1282;22917;-86
2022/08/27 07:12:01;;;;;;;20.20;13.00;;;;;;;21.91;61.03;97471.18;105470;1284;22701;-85
2022/08/27 07:14:31;;;;;;;16.80;11.70;;;;;;;21.95;60.82;97471.91;105536;1284;25439;-87
2022/08/27 07:17:07;;;;;;;21.00;12.90;;;;;;;22.00;60.89;97475.99;105554;1282;22851;-87
2022/08/27 07:19:38;;;;;;;18.40;12.70;;;;;;;22.05;60.86;97478.16;105508;1284;22810;-86
2022/08/27 07:22:08;;;;;;;16.90;10.50;;;;;;;22.14;60.82;97480.70;105518;1282;22570;-86
2022/08/27 07:24:36;;;;;;;17.60;11.50;;;;;;;22.21;60.75;97485.08;105441;1282;22586;-86
2022/08/27 07:27:05;;;;;;;15.60;10.20;;;;;;;22.32;60.52;97487.94;105578;1283;22572;-86
2022/08/27 07:29:34;;;;;;;18.70;11.10;;;;;;;22.46;60.50;97484.61;105457;1284;25987;-87
2022/08/27 07:32:02;;;;;;;15.70;9.80;;;;;;;22.59;60.11;97488.42;105473;1282;24143;-86
2022/08/27 07:34:30;;;;;;;17.00;10.50;;;;;;;22.68;59.79;97487.27;105499;1283;22711;-86
2022/08/27 07:36:58;;;;;;;15.10;10.10;;;;;;;22.78;59.75;97497.58;105567;1283;22810;-86
2022/08/27 07:39:26;;;;;;;17.80;12.00;;;;;;;22.85;58.92;97502.05;105606;1282;25321;-86
2022/08/27 07:44:43;;;;;;;16.10;10.80;;;;;;;23.00;58.91;97511.30;105647;1283;22563;-85
2022/08/27 07:47:12;;;;;;;16.40;9.80;;;;;;;23.05;58.15;97508.64;105635;1282;25563;-85
2022/08/27 07:49:40;;;;;;;13.50;9.50;;;;;;;23.08;58.17;97517.74;105568;1282;23669;-87
2022/08/27 07:52:08;;;;;;;12.90;9.10;;;;;;;23.16;58.56;97526.24;105554;1283;22671;-86
2022/08/27 07:54:36;;;;;;;16.80;9.70;;;;;;;23.26;57.39;97526.48;105584;1282;22543;-86
2022/08/27 07:57:04;;;;;;;14.90;9.60;;;;;;;23.28;57.39;97531.20;105603;1282;25358;-87
2022/08/27 07:59:34;;;;;;;15.10;9.40;;;;;;;23.37;57.78;97529.16;105396;1284;25329;-85
2022/08/27 08:02:02;;;;;;;16.70;9.40;;;;;;;23.50;57.62;97525.94;105401;1284;22553;-85
2022/08/27 08:04:30;;;;;;;15.40;8.00;;;;;;;23.65;57.38;97526.17;105400;1282;22711;-85
2022/08/27 08:06:58;;;;;;;15.10;8.70;;;;;;;23.79;57.35;97522.95;106075;1282;22573;-86
2022/08/27 08:09:26;;;;;;;19.60;7.10;;;;;;;23.93;56.85;97522.07;107327;1282;22552;-86
2022/08/27 08:11:55;;;;;;;10.50;7.30;;;;;;;24.04;56.31;97521.27;106965;1282;22547;-85
2022/08/27 08:14:30;;;;;;;10.70;7.30;;;;;;;24.15;55.82;97522.09;105633;1282;22566;-86
2022/08/27 08:17:00;;;;;;;11.90;7.70;;;;;;;24.25;54.63;97525.44;106794;1282;23104;-85
2022/08/27 08:19:31;;;;;;;18.60;8.40;;;;;;;24.36;54.96;97528.08;105642;1282;24540;-86
2022/08/27 08:22:00;;;;;;;12.50;7.30;;;;;;;24.52;55.02;97528.52;105445;1282;22566;-86
2022/08/27 08:24:35;;;;;;;11.00;7.60;;;;;;;24.64;54.41;97527.20;105352;1282;24254;-86
2022/08/27 08:27:03;;;;;;;12.80;7.00;;;;;;;24.76;53.98;97529.19;105679;1282;24435;-87
2022/08/27 08:29:34;;;;;;;12.10;7.30;;;;;;;24.89;53.62;97529.13;105618;1282;22821;-86
2022/08/27 08:32:05;;;;;;;10.80;6.60;;;;;;;25.04;53.08;97533.76;105429;1282;26680;-86
2022/08/27 08:34:34;;;;;;;15.90;7.70;;;;;;;25.15;52.87;97531.89;105596;1282;24246;-86
2022/08/27 08:37:05;;;;;;;13.00;7.00;;;;;;;25.29;52.70;97532.59;105372;1283;22570;-86
2022/08/27 08:39:35;;;;;;;11.80;6.80;;;;;;;25.42;52.36;97534.14;105655;1282;22612;-86
2022/08/27 08:42:06;;;;;;;17.40;6.80;;;;;;;25.53;51.05;97536.34;105601;1282;22485;-86
2022/08/27 08:44:39;;;;;;;11.40;6.60;;;;;;;25.57;50.03;97532.67;105681;1282;22631;-87
2022/08/27 08:47:30;;;;;;;11.70;7.00;;;;;;;25.58;49.53;97533.08;105758;1282;24379;-87
2022/08/27 08:50:12;;;;;;;11.60;6.30;;;;;;;25.59;48.82;97535.04;105663;1282;24290;-85
2022/08/27 08:52:59;;;;;;;13.60;7.20;;;;;;;25.63;48.49;97538.23;105675;1283;25239;-86
2022/08/27 08:55:40;;;;;;;11.00;6.40;;;;;;;25.73;48.85;97543.34;105682;1282;25239;-86
2022/08/27 08:58:12;;;;;;;12.40;7.10;;;;;;;25.88;48.56;97542.69;105738;1282;24232;-87
2022/08/27 09:00:43;;;;;;;9.60;6.70;;;;;;;26.03;48.89;97538.12;106317;1282;22533;-88
2022/08/27 09:03:13;;;;;;;13.50;6.80;;;;;;;26.17;49.24;97539.14;106154;1283;25922;-90
2022/08/27 09:05:48;;;;;;;12.70;7.30;;;;;;;26.31;49.21;97542.31;105648;1282;25265;-86
2022/08/27 09:08:25;;;;;;;12.40;6.80;;;;;;;26.40;48.69;97536.91;105631;1282;25576;-87
2022/08/27 09:11:25;;;;;;;11.50;6.90;;;;;;;26.53;48.72;97542.15;105617;1282;25665;-86
2022/08/27 09:14:16;;;;;;;12.70;6.30;;;;;;;26.68;48.48;97541.73;105640;1282;22680;-87
2022/08/27 09:16:44;;;;;;;14.70;6.80;;;;;;;26.86;48.44;97543.09;106897;1282;23026;-86
2022/08/27 09:19:13;;;;;;;12.30;8.10;;;;;;;26.99;48.39;97544.86;106814;1282;22552;-87
2022/08/27 09:21:59;;;;;;;17.00;7.40;;;;;;;27.09;47.20;97550.17;105455;1283;24588;-86
2022/08/27 09:24:51;;;;;;;15.00;6.90;;;;;;;27.11;47.64;97547.79;105500;1284;22973;-86
2022/08/27 09:27:21;;;;;;;13.90;7.50;;;;;;;27.23;47.48;97545.90;105606;1282;22700;-85
2022/08/27 09:29:52;;;;;;;12.60;7.70;;;;;;;27.26;46.78;97542.61;105626;1282;22562;-87
2022/08/27 09:33:12;;;;;;;11.80;7.10;;;;;;;27.26;47.14;97542.78;105690;1282;24279;-85
2022/08/27 09:35:43;;;;;;;14.30;7.00;;;;;;;27.36;47.41;97546.88;105562;1282;25325;-86
2022/08/27 09:38:28;;;;;;;13.00;7.50;;;;;;;27.51;47.09;97547.36;105605;1282;22577;-85
2022/08/27 09:41:08;;;;;;;12.80;7.90;;;;;;;27.58;46.55;97553.09;105633;1282;22567;-87
2022/08/27 09:43:38;;;;;;;14.00;7.80;;;;;;;27.49;46.73;97548.81;105502;1282;23682;-86
2022/08/27 09:46:20;;;;;;;14.20;8.10;;;;;;;27.51;46.79;97550.45;105588;1282;22696;-86
2022/08/27 09:48:51;;;;;;;15.60;7.90;;;;;;;27.62;47.08;97549.16;105679;1282;22564;-87
2022/08/27 09:51:24;;;;;;;18.90;8.40;;;;;;;27.77;47.06;97548.14;105430;1283;22563;-87
2022/08/27 09:54:00;;;;;;;14.60;8.80;;;;;;;27.81;46.51;97548.31;104556;1282;1543116;-88
2022/08/27 09:56:46;;;;;;;18.20;8.80;;;;;;;27.73;47.01;97549.30;105655;1282;24299;-87
2022/08/27 09:59:21;;;;;;;16.10;8.30;;;;;;;27.72;46.54;97552.32;105721;1282;25620;-87
2022/08/27 10:02:04;;;;;;;16.80;9.50;;;;;;;27.68;46.52;97548.42;105808;1282;26590;-88
2022/08/27 10:04:51;;;;;;;16.90;8.30;;;;;;;27.72;47.08;97552.80;105395;1283;22774;-88
2022/08/27 10:07:32;;;;;;;13.90;8.20;;;;;;;27.77;46.57;97551.77;105666;1282;25244;-87
2022/08/27 10:10:18;;;;;;;12.00;7.90;;;;;;;27.75;46.62;97550.14;105655;1282;24314;-86
2022/08/27 10:13:20;;;;;;;15.40;8.10;;;;;;;27.75;46.50;97549.50;105714;1282;22703;-88
2022/08/27 10:16:08;;;;;;;15.60;8.20;;;;;;;27.73;46.77;97548.73;104781;1290;24574;-87
2022/08/27 10:18:56;;;;;;;19.40;9.00;;;;;;;27.81;47.22;97549.73;104701;1290;22576;-87
2022/08/27 10:21:43;;;;;;;14.40;8.30;;;;;;;27.80;47.00;97553.23;104745;1290;24318;-87
2022/08/27 10:24:42;;;;;;;17.90;8.80;;;;;;;27.67;47.43;97549.17;104776;1288;22929;-87
2022/08/27 10:27:44;;;;;;;14.50;9.00;;;;;;;27.66;48.11;97552.41;104781;1288;22581;-88
2022/08/27 10:30:23;;;;;;;17.00;9.90;;;;;;;27.58;48.61;97552.08;104816;1288;24312;-87
2022/08/27 10:32:59;;;;;;;19.50;10.60;;;;;;;27.65;49.51;97551.41;104810;1288;24410;-88
2022/08/27 10:35:44;;;;;;;12.90;9.40;;;;;;;27.60;49.77;97552.03;104817;1288;24302;-87
2022/08/27 10:38:35;;;;;;;18.70;10.10;;;;;;;27.61;49.67;97551.95;104654;1288;24268;-87
2022/08/27 10:41:53;;;;;;;15.90;10.50;;;;;;;27.69;50.11;97550.95;104954;1288;25326;-87
2022/08/27 10:44:41;;;;;;;18.10;10.30;;;;;;;27.65;50.27;97552.04;104868;1288;22556;-86
2022/08/27 10:47:33;;;;;;;18.60;10.60;;;;;;;27.58;50.61;97546.60;104758;1290;24381;-87
2022/08/27 10:50:07;;;;;;;18.60;9.60;;;;;;;27.63;50.89;97542.59;104834;1288;22552;-87
2022/08/27 10:52:53;;;;;;;15.00;9.40;;;;;;;27.73;50.89;97544.01;105090;1282;24262;-87
2022/08/27 10:55:26;;;;;;;18.50;10.50;;;;;;;27.90;50.72;97539.61;105700;1283;22708;-87
2022/08/27 10:58:25;;;;;;;14.30;9.50;;;;;;;27.98;50.95;97536.54;105687;1282;24212;-88
2022/08/27 11:00:59;;;;;;;13.00;9.70;;;;;;;28.19;50.80;97537.35;105355;1282;23956;-86
2022/08/27 11:03:36;;;;;;;13.60;9.30;;;;;;;28.28;50.84;97537.98;105487;1282;24287;-86
2022/08/27 11:06:17;;;;;;;24.50;10.10;;;;;;;28.25;50.02;97536.74;105667;1282;22791;-87
2022/08/27 11:08:53;;;;;;;13.50;9.80;;;;;;;28.28;49.85;97540.89;105509;1282;23031;-85
2022/08/27 11:11:36;;;;;;;18.90;9.10;;;;;;;28.19;50.22;97538.61;105413;1283;23396;-85
2022/08/27 11:14:36;;;;;;;13.00;8.80;;;;;;;28.21;50.30;97534.69;105354;1283;22576;-85
2022/08/27 11:17:20;;;;;;;16.40;10.00;;;;;;;28.34;49.98;97532.23;105438;1282;22824;-85
2022/08/27 11:20:00;;;;;;;20.50;9.60;;;;;;;28.36;49.57;97537.33;105472;1282;24322;-87
2022/08/27 11:22:36;;;;;;;14.70;8.90;;;;;;;28.29;49.80;97536.52;105860;1282;22563;-87
2022/08/27 11:25:29;;;;;;;15.70;9.60;;;;;;;28.36;49.69;97531.33;105600;1282;25505;-85
2022/08/27 11:27:59;;;;;;;17.00;9.10;;;;;;;28.57;50.23;97524.50;105639;1282;22553;-87
2022/08/27 11:30:40;;;;;;;18.60;8.70;;;;;;;28.73;48.58;97525.35;105685;1282;22572;-86
2022/08/27 11:33:17;;;;;;;17.60;8.10;;;;;;;28.76;47.60;97527.74;105639;1282;25461;-87
2022/08/27 11:36:16;;;;;;;18.40;8.50;;;;;;;28.82;46.85;97524.60;105641;1282;24429;-85
2022/08/27 11:38:59;;;;;;;18.30;9.20;;;;;;;29.02;46.49;97520.45;105602;1282;22718;-85
2022/08/27 11:41:52;;;;;;;18.60;9.10;;;;;;;29.24;46.61;97517.98;105612;1282;25373;-86
2022/08/27 11:44:24;;;;;;;15.60;8.90;;;;;;;29.34;46.20;97514.16;105584;1282;25627;-86
2022/08/27 11:47:06;;;;;;;14.70;8.60;;;;;;;29.40;46.36;97510.92;105476;1282;25366;-86
2022/08/27 11:49:46;;;;;;;18.10;9.10;;;;;;;29.56;46.22;97507.91;105607;1282;23944;-83
2022/08/27 11:52:36;;;;;;;17.60;9.10;;;;;;;29.70;45.94;97504.42;105649;1282;22704;-85